createdAt,value
2023-01-14T00:01:54.111Z,7.96
2023-01-14T00:06:55.936Z,7.79
2023-01-14T00:11:57.723Z,7.81
2023-01-14T00:17:00.726Z,7.68
2023-01-14T00:22:02.142Z,7.79
2023-01-14T00:27:03.633Z,7.89
2023-01-14T00:32:05.932Z,7.82
2023-01-14T00:37:08.273Z,7.87
2023-01-14T00:42:09.738Z,7.94
2023-01-14T00:47:11.278Z,7.97
2023-01-14T00:52:12.797Z,7.94
2023-01-14T00:57:17.101Z,7.84
2023-01-14T01:02:18.558Z,7.72
2023-01-14T01:07:20.009Z,7.68
2023-01-14T01:12:21.986Z,7.61
2023-01-14T01:17:23.936Z,7.57
2023-01-14T01:22:25.464Z,7.60
2023-01-14T01:27:26.844Z,7.64
2023-01-14T01:32:28.227Z,7.60
2023-01-14T01:37:30.096Z,7.56
2023-01-14T01:42:34.993Z,7.54
2023-01-14T01:47:36.373Z,7.52
2023-01-14T01:52:37.847Z,7.55
2023-01-14T01:57:39.608Z,7.52
2023-01-14T02:02:41.115Z,7.51
2023-01-14T02:07:44.663Z,7.48
2023-01-14T02:13:15.917Z,7.44
2023-01-14T02:18:31.257Z,7.44
2023-01-14T02:24:06.013Z,7.41
2023-01-14T02:29:27.390Z,7.32
2023-01-14T02:34:37.720Z,7.37
2023-01-14T02:39:46.082Z,7.37
2023-01-14T02:44:55.383Z,7.37
2023-01-14T02:50:00.040Z,7.46
2023-01-14T02:55:03.868Z,7.42
2023-01-14T03:00:30.170Z,7.36
2023-01-14T03:05:49.579Z,7.26
2023-01-14T03:11:00.549Z,7.24
2023-01-14T03:16:07.980Z,7.15
2023-01-14T03:21:19.112Z,7.16
2023-01-14T03:26:23.483Z,7.13
2023-01-14T03:31:29.111Z,7.10
2023-01-14T03:36:34.828Z,7.03
2023-01-14T03:41:56.704Z,6.92
2023-01-14T03:46:58.652Z,6.87
2023-01-14T03:52:07.835Z,6.89
2023-01-14T03:57:15.856Z,6.91
2023-01-14T04:02:19.839Z,6.93
2023-01-14T04:07:22.723Z,6.95
2023-01-14T04:12:24.170Z,6.84
2023-01-14T04:17:25.556Z,6.82
2023-01-14T04:22:27.021Z,6.86
2023-01-14T04:27:28.335Z,6.79
2023-01-14T04:32:32.168Z,6.77
2023-01-14T04:37:33.565Z,6.68
2023-01-14T04:42:35.111Z,6.72
2023-01-14T04:47:36.814Z,6.79
2023-01-14T04:52:38.399Z,6.76
2023-01-14T04:57:39.759Z,6.76
2023-01-14T05:02:41.164Z,6.67
2023-01-14T05:07:42.621Z,6.60
2023-01-14T05:12:57.156Z,6.68
2023-01-14T05:17:59.038Z,6.69
2023-01-14T05:23:06.273Z,6.71
2023-01-14T05:28:11.973Z,6.59
2023-01-14T05:33:14.365Z,6.61
2023-01-14T05:38:15.937Z,6.70
2023-01-14T05:43:36.134Z,6.70
2023-01-14T05:48:37.525Z,6.70
2023-01-14T05:53:39.059Z,6.84
2023-01-14T05:58:40.421Z,6.78
2023-01-14T06:04:00.400Z,6.77
2023-01-14T06:09:07.205Z,6.77
2023-01-14T06:14:08.973Z,6.75
2023-01-14T06:19:14.406Z,6.76
2023-01-14T06:24:15.868Z,6.75
2023-01-14T06:29:17.245Z,6.82
2023-01-14T06:34:22.311Z,6.84
2023-01-14T06:39:23.773Z,6.95
2023-01-14T06:44:25.142Z,6.85
2023-01-14T06:49:26.599Z,6.85
2023-01-14T06:54:27.903Z,6.99
2023-01-14T06:59:29.408Z,7.05
2023-01-14T07:04:30.869Z,7.07
2023-01-14T07:09:32.722Z,7.09
2023-01-14T07:14:34.307Z,7.14
2023-01-14T07:19:35.801Z,7.19
2023-01-14T07:24:38.948Z,7.16
2023-01-14T07:29:40.464Z,7.15
2023-01-14T07:34:41.892Z,7.26
2023-01-14T07:39:43.331Z,7.33
2023-01-14T07:44:45.004Z,7.34
2023-01-14T07:49:46.629Z,7.29
2023-01-14T07:54:48.030Z,7.31
2023-01-14T07:59:49.487Z,7.42
2023-01-14T08:04:50.893Z,7.35
2023-01-14T08:09:52.367Z,7.52
2023-01-14T08:14:53.779Z,7.59
2023-01-14T08:19:55.333Z,7.57
2023-01-14T08:24:57.814Z,7.56
2023-01-14T08:29:59.239Z,7.61
2023-01-14T08:35:00.793Z,7.65
2023-01-14T08:40:02.334Z,7.68
2023-01-14T08:45:03.962Z,7.71
2023-01-14T08:50:05.750Z,7.76
2023-01-14T08:55:07.566Z,7.79
2023-01-14T09:00:10.479Z,7.75
2023-01-14T09:05:12.067Z,7.75
2023-01-14T09:10:32.000Z,7.73
2023-01-14T09:15:52.160Z,7.70
2023-01-14T09:20:53.563Z,7.66
2023-01-14T09:25:54.900Z,7.68
2023-01-14T09:30:56.315Z,7.73
2023-01-14T09:36:01.281Z,7.74
2023-01-14T09:41:10.678Z,7.66
2023-01-14T09:46:12.886Z,7.67
2023-01-14T09:51:33.191Z,7.81
2023-01-14T09:56:44.023Z,7.95
2023-01-14T10:02:10.246Z,7.99
2023-01-14T10:07:14.671Z,7.95
2023-01-14T10:12:39.077Z,7.93
2023-01-14T10:17:44.461Z,7.94
2023-01-14T10:23:06.286Z,7.90
2023-01-14T10:28:13.052Z,7.89
2023-01-14T10:33:16.612Z,7.92
2023-01-14T10:38:22.608Z,8.05
2023-01-14T10:43:30.968Z,8.17
2023-01-14T10:48:46.894Z,8.23
2023-01-14T10:53:48.451Z,8.25
2023-01-14T10:58:50.575Z,8.27
2023-01-14T11:03:52.522Z,8.26
2023-01-14T11:08:54.917Z,8.30
2023-01-14T11:13:56.730Z,8.24
2023-01-14T11:19:03.978Z,8.29
2023-01-14T11:24:19.463Z,8.36
2023-01-14T11:29:27.068Z,8.41
2023-01-14T11:34:39.123Z,8.40
2023-01-14T11:39:46.547Z,8.43
2023-01-14T11:45:12.818Z,8.47
2023-01-14T11:50:21.320Z,8.51
2023-01-14T11:55:23.017Z,8.57
2023-01-14T12:00:24.602Z,8.64
2023-01-14T12:05:26.633Z,8.67
2023-01-14T12:10:39.638Z,8.65
2023-01-14T12:16:22.066Z,8.69
2023-01-14T12:21:37.836Z,8.77
2023-01-14T12:26:44.845Z,8.78
2023-01-14T12:31:53.514Z,8.77
2023-01-14T12:37:10.391Z,8.71
2023-01-14T12:42:53.457Z,8.57
2023-01-14T12:47:55.640Z,8.64
2023-01-14T12:52:57.300Z,8.55
2023-01-14T12:58:00.615Z,8.62
2023-01-14T13:03:09.083Z,8.54
2023-01-14T13:08:26.453Z,8.53
2023-01-14T13:13:28.001Z,8.51
2023-01-14T13:18:35.643Z,8.48
2023-01-14T13:23:36.970Z,8.48
2023-01-14T13:29:06.830Z,8.55
2023-01-14T13:34:23.599Z,8.49
2023-01-14T13:39:25.512Z,8.46
2023-01-14T13:44:33.600Z,8.42
2023-01-14T13:49:42.237Z,8.43
2023-01-14T13:54:46.180Z,8.37
2023-01-14T13:59:54.814Z,8.45
2023-01-14T14:04:56.343Z,8.49
2023-01-14T14:10:02.522Z,8.48
2023-01-14T14:15:13.049Z,8.50
2023-01-14T14:20:18.981Z,8.52
2023-01-14T14:25:34.111Z,8.44
2023-01-14T14:30:49.714Z,8.53
2023-01-14T14:35:51.388Z,8.70
2023-01-14T14:40:52.975Z,8.58
2023-01-14T14:46:06.619Z,8.65
2023-01-14T14:51:16.030Z,8.57
2023-01-14T14:56:20.000Z,8.67
2023-01-14T15:01:23.513Z,8.81
2023-01-14T15:06:27.321Z,8.76
2023-01-14T15:11:33.631Z,8.71
2023-01-14T15:16:35.801Z,8.76
2023-01-14T15:21:39.127Z,8.76
2023-01-14T15:26:42.096Z,8.77
2023-01-14T15:31:43.459Z,8.70
2023-01-14T15:36:55.558Z,8.71
2023-01-14T15:42:00.516Z,8.72
2023-01-14T15:47:02.463Z,8.68
2023-01-14T15:52:07.093Z,8.69
2023-01-14T15:57:16.087Z,8.78
2023-01-14T16:02:25.792Z,8.81
2023-01-14T16:07:27.436Z,8.80
2023-01-14T16:12:28.793Z,8.81
2023-01-14T16:17:30.342Z,8.80
2023-01-14T16:22:33.618Z,8.83
2023-01-14T16:27:37.751Z,8.85
2023-01-14T16:32:39.222Z,8.82
2023-01-14T16:37:42.305Z,8.89
2023-01-14T16:42:44.053Z,8.93
2023-01-14T16:47:45.517Z,8.96
2023-01-14T16:52:47.523Z,8.92
2023-01-14T16:57:49.568Z,8.92
2023-01-14T17:02:51.569Z,8.95
2023-01-14T17:07:53.843Z,8.98
2023-01-14T17:12:55.186Z,8.95
2023-01-14T17:17:58.070Z,8.96
2023-01-14T17:23:01.817Z,8.96
2023-01-14T17:28:03.702Z,8.99
2023-01-14T17:33:05.133Z,9.02
2023-01-14T17:38:07.108Z,9.03
2023-01-14T17:43:08.595Z,9.06
2023-01-14T17:48:10.964Z,9.08
2023-01-14T17:53:12.610Z,9.03
2023-01-14T17:58:14.030Z,9.08
2023-01-14T18:03:16.456Z,9.05
2023-01-14T18:08:17.901Z,9.11
2023-01-14T18:13:19.361Z,9.07
2023-01-14T18:18:21.144Z,9.10
2023-01-14T18:23:22.687Z,9.06
2023-01-14T18:28:24.133Z,9.08
2023-01-14T18:33:25.733Z,9.15
2023-01-14T18:38:27.177Z,9.18
2023-01-14T18:43:28.719Z,9.11
2023-01-14T18:48:30.250Z,9.16
2023-01-14T18:53:31.732Z,9.16
2023-01-14T18:58:35.124Z,9.18
2023-01-14T19:03:36.939Z,9.21
2023-01-14T19:08:39.078Z,9.15
2023-01-14T19:13:40.463Z,9.13
2023-01-14T19:18:42.121Z,9.17
2023-01-14T19:23:43.598Z,9.15
2023-01-14T19:28:47.376Z,9.15
2023-01-14T19:33:49.074Z,9.18
2023-01-14T19:38:50.649Z,9.25
2023-01-14T19:43:52.333Z,9.26
2023-01-14T19:48:54.178Z,9.23
2023-01-14T19:53:56.895Z,9.20
2023-01-14T19:58:58.744Z,9.29
2023-01-14T20:04:07.136Z,9.30
2023-01-14T20:09:12.845Z,9.32
2023-01-14T20:14:14.446Z,9.30
2023-01-14T20:19:15.831Z,9.51
2023-01-14T20:24:17.269Z,9.63
2023-01-14T20:29:18.781Z,9.52
2023-01-14T20:34:20.147Z,9.53
2023-01-14T20:39:23.273Z,9.50
2023-01-14T20:44:43.547Z,9.48
2023-01-14T20:49:45.115Z,9.42
2023-01-14T20:54:47.379Z,9.46
2023-01-14T20:59:48.930Z,9.48
2023-01-14T21:04:50.535Z,9.50
2023-01-14T21:09:54.250Z,9.51
2023-01-14T21:15:14.335Z,9.47
2023-01-14T21:20:37.342Z,9.43
2023-01-14T21:25:42.227Z,9.41
2023-01-14T21:30:46.473Z,9.39
2023-01-14T21:35:48.080Z,9.34
2023-01-14T21:41:09.572Z,9.36
2023-01-14T21:46:11.086Z,9.37
2023-01-14T21:51:13.643Z,9.44
2023-01-14T21:56:18.329Z,9.46
2023-01-14T22:01:20.307Z,9.48
2023-01-14T22:06:22.736Z,9.50
2023-01-14T22:11:24.468Z,9.50
2023-01-14T22:16:27.394Z,9.61
2023-01-14T22:21:29.041Z,9.65
2023-01-14T22:26:30.399Z,9.69
2023-01-14T22:31:31.915Z,9.71
2023-01-14T22:36:33.310Z,9.72
2023-01-14T22:41:34.692Z,9.69
2023-01-14T22:46:36.146Z,9.69
2023-01-14T22:51:37.675Z,9.69
2023-01-14T22:56:39.483Z,9.70
2023-01-14T23:01:40.911Z,9.72
2023-01-14T23:06:42.559Z,9.73
2023-01-14T23:11:43.887Z,9.72
2023-01-14T23:17:03.725Z,9.72
2023-01-14T23:22:23.953Z,9.70
2023-01-14T23:27:25.635Z,9.73
2023-01-14T23:32:27.219Z,9.70
2023-01-14T23:37:29.763Z,9.69
2023-01-14T23:42:42.150Z,9.67
2023-01-14T23:47:44.663Z,9.62
2023-01-14T23:52:46.333Z,9.60
2023-01-14T23:57:48.165Z,9.62
